createdAt,value
2023-03-06T00:00:53.967Z,-4.61
2023-03-06T00:03:21.350Z,-4.61
2023-03-06T00:05:48.551Z,-4.63
2023-03-06T00:08:16.015Z,-4.63
2023-03-06T00:10:42.717Z,-4.63
2023-03-06T00:13:13.056Z,-4.61
2023-03-06T00:15:40.242Z,-4.59
2023-03-06T00:18:07.292Z,-4.60
2023-03-06T00:20:35.461Z,-4.58
2023-03-06T00:23:02.297Z,-4.58
2023-03-06T00:25:28.933Z,-4.57
2023-03-06T00:27:55.782Z,-4.56
2023-03-06T00:30:24.460Z,-4.54
2023-03-06T00:32:54.149Z,-4.51
2023-03-06T00:35:21.130Z,-4.48
2023-03-06T00:37:47.798Z,-4.43
2023-03-06T00:40:17.433Z,-4.39
2023-03-06T00:42:44.629Z,-4.38
2023-03-06T00:45:12.141Z,-4.36
2023-03-06T00:47:39.029Z,-4.30
2023-03-06T00:50:06.387Z,-4.23
2023-03-06T00:52:33.063Z,-4.20
2023-03-06T00:54:59.853Z,-4.18
2023-03-06T00:57:26.464Z,-4.19
2023-03-06T00:59:53.315Z,-4.20
2023-03-06T01:02:20.116Z,-4.22
2023-03-06T01:04:46.775Z,-4.23
2023-03-06T01:07:13.421Z,-4.24
2023-03-06T01:09:40.059Z,-4.23
2023-03-06T01:12:07.070Z,-4.22
2023-03-06T01:14:33.936Z,-4.23
2023-03-06T01:17:00.569Z,-4.21
2023-03-06T01:19:27.400Z,-4.19
2023-03-06T01:21:54.115Z,-4.20
2023-03-06T01:24:20.823Z,-4.21
2023-03-06T01:26:47.425Z,-4.21
2023-03-06T01:29:14.036Z,-4.22
2023-03-06T01:31:40.746Z,-4.24
2023-03-06T01:34:07.449Z,-4.25
2023-03-06T01:36:34.389Z,-4.24
2023-03-06T01:39:01.052Z,-4.26
2023-03-06T01:41:27.725Z,-4.30
2023-03-06T01:43:54.363Z,-4.33
2023-03-06T01:46:33.787Z,-4.35
2023-03-06T01:49:12.076Z,-4.33
2023-03-06T01:52:01.812Z,-4.35
2023-03-06T01:54:33.293Z,-4.39
2023-03-06T01:57:08.084Z,-4.40
2023-03-06T01:59:37.563Z,-4.42
2023-03-06T02:02:06.958Z,-4.40
2023-03-06T02:04:35.474Z,-4.42
2023-03-06T02:07:06.236Z,-4.43
2023-03-06T02:09:34.229Z,-4.46
2023-03-06T02:12:02.906Z,-4.46
2023-03-06T02:14:30.268Z,-4.48
2023-03-06T02:16:57.052Z,-4.52
2023-03-06T02:19:40.193Z,-4.53
2023-03-06T02:22:07.238Z,-4.56
2023-03-06T02:24:55.100Z,-4.63
2023-03-06T02:27:24.212Z,-4.67
2023-03-06T02:29:50.936Z,-4.69
2023-03-06T02:32:17.687Z,-4.71
2023-03-06T02:34:54.301Z,-4.73
2023-03-06T02:37:21.486Z,-4.77
2023-03-06T02:39:53.321Z,-4.79
2023-03-06T02:42:26.147Z,-4.83
2023-03-06T02:44:54.294Z,-4.86
2023-03-06T02:47:20.911Z,-4.88
2023-03-06T02:49:47.889Z,-4.90
2023-03-06T02:52:14.583Z,-4.90
2023-03-06T02:54:41.259Z,-4.89
2023-03-06T02:57:08.233Z,-4.91
2023-03-06T02:59:34.884Z,-4.91
2023-03-06T03:02:01.521Z,-4.91
2023-03-06T03:04:28.153Z,-4.90
2023-03-06T03:06:54.764Z,-4.92
2023-03-06T03:09:21.424Z,-4.92
2023-03-06T03:11:48.130Z,-4.94
2023-03-06T03:14:16.681Z,-4.93
2023-03-06T03:16:43.446Z,-4.92
2023-03-06T03:19:10.087Z,-4.93
2023-03-06T03:21:36.749Z,-4.95
2023-03-06T03:24:03.523Z,-4.98
2023-03-06T03:26:30.200Z,-5.01
2023-03-06T03:28:56.828Z,-5.05
2023-03-06T03:31:23.552Z,-5.04
2023-03-06T03:33:50.207Z,-5.08
2023-03-06T03:36:16.890Z,-5.09
2023-03-06T03:38:43.487Z,-5.09
2023-03-06T03:41:10.106Z,-5.12
2023-03-06T03:43:36.758Z,-5.14
2023-03-06T03:46:03.458Z,-5.12
2023-03-06T03:48:30.119Z,-5.13
2023-03-06T03:51:07.739Z,-5.13
2023-03-06T03:53:34.456Z,-5.14
2023-03-06T03:56:01.100Z,-5.16
2023-03-06T03:58:27.720Z,-5.16
2023-03-06T04:00:54.367Z,-5.16
2023-03-06T04:03:21.121Z,-5.16
2023-03-06T04:05:47.933Z,-5.15
2023-03-06T04:08:14.595Z,-5.17
2023-03-06T04:10:41.290Z,-5.16
2023-03-06T04:13:09.982Z,-5.13
2023-03-06T04:15:37.030Z,-5.13
2023-03-06T04:18:03.854Z,-5.11
2023-03-06T04:20:30.754Z,-5.10
2023-03-06T04:22:57.425Z,-5.09
2023-03-06T04:25:24.020Z,-5.08
2023-03-06T04:27:50.641Z,-5.10
2023-03-06T04:30:17.387Z,-5.10
2023-03-06T04:32:44.227Z,-5.11
2023-03-06T04:35:10.867Z,-5.12
2023-03-06T04:37:37.605Z,-5.11
2023-03-06T04:40:04.561Z,-5.09
2023-03-06T04:42:31.341Z,-5.07
2023-03-06T04:44:57.994Z,-5.08
2023-03-06T04:47:24.655Z,-5.09
2023-03-06T04:49:51.314Z,-5.09
2023-03-06T04:52:18.003Z,-5.12
2023-03-06T04:54:46.058Z,-5.15
2023-03-06T04:57:14.207Z,-5.14
2023-03-06T04:59:40.873Z,-5.09
2023-03-06T05:02:07.912Z,-5.07
2023-03-06T05:04:34.575Z,-5.08
2023-03-06T05:07:01.194Z,-5.09
2023-03-06T05:09:27.847Z,-5.10
2023-03-06T05:11:54.562Z,-5.10
2023-03-06T05:14:21.186Z,-5.07
2023-03-06T05:16:47.918Z,-5.09
2023-03-06T05:19:14.573Z,-5.12
2023-03-06T05:21:41.189Z,-5.14
2023-03-06T05:24:07.925Z,-5.13
2023-03-06T05:26:34.891Z,-5.14
2023-03-06T05:29:01.615Z,-5.12
2023-03-06T05:31:28.322Z,-5.12
2023-03-06T05:33:54.938Z,-5.12
2023-03-06T05:36:21.578Z,-5.12
2023-03-06T05:38:48.265Z,-5.15
2023-03-06T05:41:15.355Z,-5.14
2023-03-06T05:43:42.557Z,-5.15
2023-03-06T05:46:10.812Z,-5.15
2023-03-06T05:48:38.102Z,-5.14
2023-03-06T05:51:05.521Z,-5.13
2023-03-06T05:53:32.829Z,-5.13
2023-03-06T05:56:02.187Z,-5.15
2023-03-06T05:58:30.041Z,-5.16
2023-03-06T06:00:57.282Z,-5.15
2023-03-06T06:03:24.884Z,-5.13
2023-03-06T06:05:52.144Z,-5.11
2023-03-06T06:08:18.998Z,-5.10
2023-03-06T06:10:45.589Z,-5.08
2023-03-06T06:13:12.220Z,-5.07
2023-03-06T06:15:38.912Z,-5.07
2023-03-06T06:18:05.590Z,-5.06
2023-03-06T06:20:32.339Z,-5.03
2023-03-06T06:22:58.952Z,-5.01
2023-03-06T06:25:25.613Z,-4.99
2023-03-06T06:27:55.440Z,-4.96
2023-03-06T06:30:22.548Z,-4.93
2023-03-06T06:32:49.452Z,-4.92
2023-03-06T06:35:16.241Z,-4.88
2023-03-06T06:37:43.063Z,-4.84
2023-03-06T06:40:10.394Z,-4.81
2023-03-06T06:42:39.944Z,-4.82
2023-03-06T06:45:08.972Z,-4.80
2023-03-06T06:47:38.385Z,-4.78
2023-03-06T06:50:05.636Z,-4.74
2023-03-06T06:52:32.271Z,-4.69
2023-03-06T06:54:58.913Z,-4.64
2023-03-06T06:57:25.525Z,-4.62
2023-03-06T06:59:53.896Z,-4.58
2023-03-06T07:02:20.957Z,-4.53
2023-03-06T07:05:02.566Z,-4.49
2023-03-06T07:07:33.284Z,-4.48
2023-03-06T07:09:59.941Z,-4.48
2023-03-06T07:12:26.568Z,-4.45
2023-03-06T07:14:53.247Z,-4.42
2023-03-06T07:17:19.870Z,-4.40
2023-03-06T07:19:46.560Z,-4.35
2023-03-06T07:22:13.530Z,-4.31
2023-03-06T07:24:40.214Z,-4.27
2023-03-06T07:27:06.892Z,-4.22
2023-03-06T07:29:34.593Z,-4.21
2023-03-06T07:32:01.610Z,-4.15
2023-03-06T07:34:28.372Z,-4.10
2023-03-06T07:36:55.075Z,-4.10
2023-03-06T07:39:21.702Z,-4.07
2023-03-06T07:41:49.534Z,-3.98
2023-03-06T07:44:16.158Z,-3.96
2023-03-06T07:46:42.836Z,-3.91
2023-03-06T07:49:09.618Z,-3.84
2023-03-06T07:51:36.254Z,-3.73
2023-03-06T07:54:03.019Z,-3.63
2023-03-06T07:56:29.807Z,-3.58
2023-03-06T07:58:57.187Z,-3.50
2023-03-06T08:01:24.319Z,-3.41
2023-03-06T08:03:51.622Z,-3.30
2023-03-06T08:06:20.058Z,-3.22
2023-03-06T08:08:48.164Z,-3.16
2023-03-06T08:11:16.733Z,-3.09
2023-03-06T08:13:44.337Z,-3.20
2023-03-06T08:16:11.703Z,-3.27
2023-03-06T08:18:39.957Z,-3.33
2023-03-06T08:21:12.446Z,-3.29
2023-03-06T08:23:40.036Z,-3.21
2023-03-06T08:26:10.824Z,-3.13
2023-03-06T08:28:37.653Z,-3.01
2023-03-06T08:31:08.689Z,-2.94
2023-03-06T08:33:35.766Z,-2.96
2023-03-06T08:36:02.636Z,-2.93
2023-03-06T08:38:29.282Z,-2.83
2023-03-06T08:40:56.076Z,-2.80
2023-03-06T08:43:22.761Z,-2.79
2023-03-06T08:45:53.918Z,-2.70
2023-03-06T08:48:20.607Z,-2.69
2023-03-06T08:50:47.481Z,-2.60
2023-03-06T08:53:14.292Z,-2.44
2023-03-06T08:55:41.120Z,-2.28
2023-03-06T08:58:08.694Z,-2.04
2023-03-06T09:00:35.913Z,-1.86
2023-03-06T09:03:02.657Z,-2.01
2023-03-06T09:05:29.430Z,-2.01
2023-03-06T09:07:56.392Z,-1.92
2023-03-06T09:10:25.374Z,-1.79
2023-03-06T09:12:54.995Z,-1.72
2023-03-06T09:15:22.976Z,-1.69
2023-03-06T09:17:50.938Z,-1.61
2023-03-06T09:20:18.855Z,-1.64
2023-03-06T09:22:45.801Z,-1.63
2023-03-06T09:25:14.014Z,-1.61
2023-03-06T09:27:41.358Z,-1.52
2023-03-06T09:30:09.131Z,-1.38
2023-03-06T09:32:35.859Z,-1.28
2023-03-06T09:35:02.511Z,-1.21
2023-03-06T09:37:29.132Z,-1.09
2023-03-06T09:39:56.250Z,-0.97
2023-03-06T09:42:23.851Z,-0.86
2023-03-06T09:44:54.666Z,-0.75
2023-03-06T09:47:47.529Z,-0.77
2023-03-06T09:50:21.333Z,-0.80
2023-03-06T09:53:17.976Z,-0.73
2023-03-06T09:56:01.025Z,-0.61
2023-03-06T09:58:30.860Z,-0.57
2023-03-06T10:01:19.760Z,-0.50
2023-03-06T10:04:09.041Z,-0.38
2023-03-06T10:06:48.513Z,-0.23
2023-03-06T10:09:22.502Z,-0.05
2023-03-06T10:11:59.221Z,0.05
2023-03-06T10:14:34.644Z,0.12
2023-03-06T10:17:02.446Z,0.08
2023-03-06T10:19:34.584Z,0.07
2023-03-06T10:22:27.112Z,0.19
2023-03-06T10:25:07.037Z,0.25
2023-03-06T10:27:48.718Z,0.19
2023-03-06T10:30:41.458Z,0.17
2023-03-06T10:33:26.900Z,-0.01
2023-03-06T10:35:55.853Z,0.03
2023-03-06T10:38:30.166Z,0.02
2023-03-06T10:41:23.145Z,-0.14
2023-03-06T10:44:04.856Z,-0.14
2023-03-06T10:46:35.514Z,-0.06
2023-03-06T10:49:10.686Z,0.03
2023-03-06T10:51:37.457Z,0.09
2023-03-06T10:54:19.106Z,0.09
2023-03-06T10:56:47.567Z,0.13
2023-03-06T10:59:19.962Z,0.21
2023-03-06T11:01:49.277Z,0.28
2023-03-06T11:04:34.692Z,0.29
2023-03-06T11:07:26.288Z,0.36
2023-03-06T11:09:59.214Z,0.40
2023-03-06T11:12:38.207Z,0.39
2023-03-06T11:15:18.445Z,0.39
2023-03-06T11:18:01.747Z,0.32
2023-03-06T11:20:44.894Z,0.31
2023-03-06T11:23:21.917Z,0.30
2023-03-06T11:26:01.238Z,0.23
2023-03-06T11:28:50.101Z,0.27
2023-03-06T11:31:20.926Z,0.28
2023-03-06T11:33:52.626Z,0.22
2023-03-06T11:36:29.364Z,0.18
2023-03-06T11:38:56.223Z,0.21
2023-03-06T11:41:40.843Z,0.25
2023-03-06T11:44:37.302Z,0.33
2023-03-06T11:47:15.669Z,0.38
2023-03-06T11:49:51.152Z,0.42
2023-03-06T11:52:25.104Z,0.42
2023-03-06T11:54:57.594Z,0.41
2023-03-06T11:57:34.596Z,0.43
2023-03-06T12:00:10.170Z,0.45
2023-03-06T12:02:39.695Z,0.46
2023-03-06T12:05:08.960Z,0.46
2023-03-06T12:07:48.936Z,0.48
2023-03-06T12:10:23.329Z,0.52
2023-03-06T12:16:23.053Z,0.55
2023-03-06T12:19:14.220Z,0.55
2023-03-06T12:22:09.211Z,0.54
2023-03-06T12:24:57.492Z,0.52
2023-03-06T12:27:32.011Z,0.51
2023-03-06T12:30:24.960Z,0.47
2023-03-06T12:33:00.876Z,0.36
2023-03-06T12:35:36.611Z,0.08
2023-03-06T12:38:09.154Z,-0.09
2023-03-06T12:41:28.677Z,-0.08
2023-03-06T12:44:01.849Z,-0.16
2023-03-06T12:46:30.519Z,-0.29
2023-03-06T12:49:10.301Z,-0.31
2023-03-06T12:51:39.917Z,-0.35
2023-03-06T12:54:07.368Z,-0.39
2023-03-06T12:56:35.463Z,-0.42
2023-03-06T12:59:02.671Z,-0.51
2023-03-06T13:01:41.486Z,-0.57
2023-03-06T13:04:08.149Z,-0.63
2023-03-06T13:06:50.717Z,-0.70
2023-03-06T13:09:28.463Z,-0.77
2023-03-06T13:12:23.385Z,-0.81
2023-03-06T13:14:55.420Z,-0.86
2023-03-06T13:17:28.170Z,-0.93
2023-03-06T13:20:13.160Z,-1.00
2023-03-06T13:22:44.849Z,-1.07
2023-03-06T13:25:17.493Z,-1.10
2023-03-06T13:28:00.452Z,-1.07
2023-03-06T13:30:39.324Z,-1.07
2023-03-06T13:33:25.831Z,-1.10
2023-03-06T13:36:26.659Z,-1.12
2023-03-06T13:38:55.142Z,-1.10
2023-03-06T13:41:27.822Z,-1.08
2023-03-06T13:43:59.924Z,-1.06
2023-03-06T13:46:35.227Z,-1.00
2023-03-06T13:49:24.194Z,-0.90
2023-03-06T13:51:53.783Z,-0.76
2023-03-06T13:54:47.130Z,-0.67
2023-03-06T13:57:32.164Z,-0.62
2023-03-06T14:00:16.757Z,-0.55
2023-03-06T14:02:49.415Z,-0.48
2023-03-06T14:05:17.662Z,-0.43
2023-03-06T14:07:46.796Z,-0.41
2023-03-06T14:10:13.375Z,-0.36
2023-03-06T14:13:00.017Z,-0.28
2023-03-06T14:15:42.816Z,-0.20
2023-03-06T14:18:31.419Z,-0.13
2023-03-06T14:21:01.588Z,-0.11
2023-03-06T14:23:42.312Z,-0.09
2023-03-06T14:26:21.896Z,-0.09
2023-03-06T14:28:58.705Z,-0.11
2023-03-06T14:31:31.911Z,-0.24
2023-03-06T14:34:01.771Z,-0.35
2023-03-06T14:36:34.713Z,-0.49
2023-03-06T14:39:07.495Z,-0.61
2023-03-06T14:41:36.093Z,-0.64
2023-03-06T14:44:20.048Z,-0.69
2023-03-06T14:46:49.292Z,-0.73
2023-03-06T14:49:18.249Z,-0.73
2023-03-06T14:51:50.878Z,-0.76
2023-03-06T14:54:21.264Z,-0.79
2023-03-06T14:56:51.322Z,-0.84
2023-03-06T14:59:25.145Z,-0.88
2023-03-06T15:01:57.739Z,-0.93
2023-03-06T15:04:40.637Z,-1.01
2023-03-06T15:07:12.365Z,-1.07
2023-03-06T15:09:43.729Z,-1.13
2023-03-06T15:12:22.799Z,-1.17
2023-03-06T15:15:09.621Z,-1.22
2023-03-06T15:17:40.154Z,-1.23
2023-03-06T15:20:28.164Z,-1.23
2023-03-06T15:22:54.808Z,-1.21
2023-03-06T15:25:24.098Z,-1.18
2023-03-06T15:28:02.194Z,-1.18
2023-03-06T15:30:36.826Z,-1.19
2023-03-06T15:33:23.632Z,-1.23
2023-03-06T15:36:19.629Z,-1.25
2023-03-06T15:38:47.536Z,-1.25
2023-03-06T15:41:34.365Z,-1.27
2023-03-06T15:44:03.103Z,-1.28
2023-03-06T15:46:30.080Z,-1.27
2023-03-06T15:49:03.100Z,-1.30
2023-03-06T15:51:31.300Z,-1.30
2023-03-06T15:54:09.736Z,-1.32
2023-03-06T15:56:44.699Z,-1.29
2023-03-06T15:59:21.663Z,-1.25
2023-03-06T16:01:49.814Z,-1.21
2023-03-06T16:04:17.408Z,-1.21
2023-03-06T16:06:45.903Z,-1.20
2023-03-06T16:09:13.700Z,-1.18
2023-03-06T16:11:44.815Z,-1.17
2023-03-06T16:14:24.101Z,-1.15
2023-03-06T16:16:53.687Z,-1.16
2023-03-06T16:19:27.301Z,-1.18
2023-03-06T16:21:55.687Z,-1.21
2023-03-06T16:24:22.929Z,-1.24
2023-03-06T16:26:51.888Z,-1.25
2023-03-06T16:29:23.238Z,-1.27
2023-03-06T16:31:50.124Z,-1.30
2023-03-06T16:34:19.742Z,-1.35
2023-03-06T16:36:48.759Z,-1.39
2023-03-06T16:39:17.027Z,-1.45
2023-03-06T16:41:45.874Z,-1.47
2023-03-06T16:44:13.072Z,-1.51
2023-03-06T16:46:42.520Z,-1.55
2023-03-06T16:49:16.147Z,-1.56
2023-03-06T16:51:43.162Z,-1.60
2023-03-06T16:54:09.845Z,-1.63
2023-03-06T16:56:36.530Z,-1.63
2023-03-06T16:59:03.251Z,-1.63
2023-03-06T17:01:29.908Z,-1.64
2023-03-06T17:03:56.594Z,-1.67
2023-03-06T17:06:23.497Z,-1.69
2023-03-06T17:08:50.866Z,-1.71
2023-03-06T17:11:18.124Z,-1.75
2023-03-06T17:13:44.732Z,-1.77
2023-03-06T17:16:18.150Z,-1.79
2023-03-06T17:18:46.285Z,-1.81
2023-03-06T17:21:15.752Z,-1.83
2023-03-06T17:23:43.107Z,-1.86
2023-03-06T17:26:13.399Z,-1.89
2023-03-06T17:28:41.122Z,-1.94
2023-03-06T17:31:20.102Z,-1.97
2023-03-06T17:33:46.984Z,-1.99
2023-03-06T17:36:14.743Z,-2.00
2023-03-06T17:38:42.197Z,-2.01
2023-03-06T17:41:10.778Z,-2.04
2023-03-06T17:43:38.892Z,-2.08
2023-03-06T17:46:12.443Z,-2.07
2023-03-06T17:48:40.122Z,-2.08
2023-03-06T17:51:07.591Z,-2.08
2023-03-06T17:53:34.521Z,-2.07
2023-03-06T17:56:07.480Z,-2.04
2023-03-06T17:58:34.931Z,-2.01
2023-03-06T18:01:09.768Z,-1.98
2023-03-06T18:03:38.502Z,-1.98
2023-03-06T18:06:05.767Z,-1.95
2023-03-06T18:08:32.420Z,-1.92
2023-03-06T18:11:07.677Z,-1.93
2023-03-06T18:13:39.110Z,-1.93
2023-03-06T18:16:07.213Z,-1.93
2023-03-06T18:18:34.298Z,-1.93
2023-03-06T18:21:09.328Z,-1.94
2023-03-06T18:23:36.874Z,-1.93
2023-03-06T18:26:24.957Z,-1.95
2023-03-06T18:28:55.036Z,-1.97
2023-03-06T18:31:33.751Z,-1.98
2023-03-06T18:34:03.345Z,-1.96
2023-03-06T18:36:32.422Z,-1.98
2023-03-06T18:39:00.826Z,-1.98
2023-03-06T18:41:27.517Z,-1.98
2023-03-06T18:43:56.301Z,-2.02
2023-03-06T18:46:23.750Z,-2.02
2023-03-06T18:48:50.599Z,-2.01
2023-03-06T18:51:17.887Z,-2.01
2023-03-06T18:53:44.716Z,-2.00
2023-03-06T18:56:20.233Z,-2.00
2023-03-06T18:58:47.473Z,-2.00
2023-03-06T19:01:14.231Z,-2.00
2023-03-06T19:03:40.921Z,-2.00
2023-03-06T19:06:10.276Z,-1.99
2023-03-06T19:08:38.076Z,-1.98
2023-03-06T19:11:10.533Z,-1.96
2023-03-06T19:13:37.328Z,-1.97
2023-03-06T19:16:04.269Z,-1.97
2023-03-06T19:18:31.414Z,-1.96
2023-03-06T19:21:14.905Z,-1.96
2023-03-06T19:23:41.940Z,-1.93
2023-03-06T19:26:09.340Z,-1.94
2023-03-06T19:28:41.178Z,-1.93
2023-03-06T19:31:12.573Z,-1.93
2023-03-06T19:33:40.477Z,-1.93
2023-03-06T19:36:09.796Z,-1.92
2023-03-06T19:38:36.819Z,-1.89
2023-03-06T19:41:03.675Z,-1.90
2023-03-06T19:43:30.689Z,-1.89
2023-03-06T19:45:57.835Z,-1.89
2023-03-06T19:48:24.764Z,-1.91
2023-03-06T19:50:51.402Z,-1.88
2023-03-06T19:53:18.089Z,-1.90
2023-03-06T19:55:44.702Z,-1.90
2023-03-06T19:58:11.431Z,-1.92
2023-03-06T20:00:38.598Z,-1.93
2023-03-06T20:03:05.296Z,-1.95
2023-03-06T20:05:32.727Z,-1.98
2023-03-06T20:07:59.438Z,-2.02
2023-03-06T20:10:26.128Z,-2.06
2023-03-06T20:12:52.741Z,-2.07
2023-03-06T20:15:22.200Z,-2.07
2023-03-06T20:17:48.958Z,-2.08
2023-03-06T20:20:15.942Z,-2.07
2023-03-06T20:22:42.857Z,-2.08
2023-03-06T20:25:09.738Z,-2.09
2023-03-06T20:27:36.523Z,-2.10
2023-03-06T20:30:03.473Z,-2.13
2023-03-06T20:32:30.231Z,-2.16
2023-03-06T20:34:56.965Z,-2.13
2023-03-06T20:37:23.632Z,-2.12
2023-03-06T20:39:51.599Z,-2.12
2023-03-06T20:42:18.245Z,-2.13
2023-03-06T20:44:44.893Z,-2.12
2023-03-06T20:47:11.518Z,-2.13
2023-03-06T20:49:38.589Z,-2.14
2023-03-06T20:52:05.234Z,-2.13
2023-03-06T20:54:31.857Z,-2.14
2023-03-06T20:56:58.468Z,-2.17
2023-03-06T20:59:25.236Z,-2.26
2023-03-06T21:01:51.990Z,-2.34
2023-03-06T21:04:18.641Z,-2.39
2023-03-06T21:06:47.012Z,-2.45
2023-03-06T21:09:16.521Z,-2.50
2023-03-06T21:11:43.240Z,-2.57
2023-03-06T21:14:10.852Z,-2.67
2023-03-06T21:16:37.463Z,-2.77
2023-03-06T21:19:05.204Z,-2.83
2023-03-06T21:21:34.857Z,-2.90
2023-03-06T21:24:02.137Z,-2.98
2023-03-06T21:26:33.598Z,-3.00
2023-03-06T21:29:00.834Z,-3.01
2023-03-06T21:31:28.478Z,-3.03
2023-03-06T21:33:55.399Z,-3.06
2023-03-06T21:36:23.395Z,-3.11
2023-03-06T21:38:51.376Z,-3.15
2023-03-06T21:41:21.105Z,-3.21
2023-03-06T21:43:47.752Z,-3.23
2023-03-06T21:46:14.529Z,-3.30
2023-03-06T21:48:41.516Z,-3.38
2023-03-06T21:51:15.739Z,-3.46
2023-03-06T21:53:43.727Z,-3.52
2023-03-06T21:56:11.698Z,-3.55
2023-03-06T21:58:38.981Z,-3.58
2023-03-06T22:01:14.388Z,-3.60
2023-03-06T22:03:41.088Z,-3.67
2023-03-06T22:06:16.790Z,-3.77
2023-03-06T22:08:44.615Z,-3.87
2023-03-06T22:11:17.089Z,-3.89
2023-03-06T22:13:44.420Z,-3.92
2023-03-06T22:16:12.157Z,-3.90
2023-03-06T22:18:39.099Z,-3.89
2023-03-06T22:21:17.000Z,-3.91
2023-03-06T22:23:44.042Z,-3.94
2023-03-06T22:26:14.444Z,-4.00
2023-03-06T22:28:42.161Z,-4.10
2023-03-06T22:31:11.506Z,-4.16
2023-03-06T22:33:38.234Z,-4.19
2023-03-06T22:36:08.005Z,-4.20
2023-03-06T22:38:36.619Z,-4.19
2023-03-06T22:41:03.603Z,-4.22
2023-03-06T22:43:30.295Z,-4.23
2023-03-06T22:46:04.234Z,-4.24
2023-03-06T22:48:31.157Z,-4.25
2023-03-06T22:51:03.502Z,-4.29
2023-03-06T22:53:31.201Z,-4.41
2023-03-06T22:56:00.165Z,-4.49
2023-03-06T22:58:34.099Z,-4.53
2023-03-06T23:01:12.437Z,-4.51
2023-03-06T23:03:41.923Z,-4.53
2023-03-06T23:06:11.694Z,-4.53
2023-03-06T23:08:39.027Z,-4.53
2023-03-06T23:11:14.767Z,-4.53
2023-03-06T23:13:41.509Z,-4.53
2023-03-06T23:16:09.452Z,-4.56
2023-03-06T23:18:37.198Z,-4.59
2023-03-06T23:21:15.008Z,-4.66
2023-03-06T23:23:44.144Z,-4.72
2023-03-06T23:26:13.521Z,-4.77
2023-03-06T23:28:41.031Z,-4.79
2023-03-06T23:31:12.668Z,-4.80
2023-03-06T23:33:39.416Z,-4.86
2023-03-06T23:36:08.014Z,-4.90
2023-03-06T23:38:34.701Z,-4.91
2023-03-06T23:41:10.199Z,-4.90
2023-03-06T23:43:37.008Z,-4.93
2023-03-06T23:46:04.210Z,-4.96
2023-03-06T23:48:30.997Z,-4.97
2023-03-06T23:50:58.252Z,-4.97
2023-03-06T23:53:25.191Z,-4.97
2023-03-06T23:55:52.199Z,-4.96
2023-03-06T23:58:19.616Z,-5.01
